Portada
METAR-TAF:

METAR-TAF

Aeroports :

Miyazaki, Japó

latitud: 31-52N, longitud: 131-27E, altitud: 6 m

Observació

L'informe es va fer fa 3 hores i 44 minuts, a les 12:00 UTC
Vent 7 kt del Oest
Temperatura 17°C
Humitat 59%
Pressió 1017 hPa
Visibilitat 10 km o més
Escasses núvols a una alçada de 3000 ft
Núvols disperses

METAR: RJFM 061200Z 27007KT 9999 FEW030 SCT/// 17/09 Q1017

Hora: 00:44 (15:44 UTC)

Pronòstic

L'informe es va fer fa 4 hores i 39 minuts, a les 11:05 UTC
Pronòstic vàlid del 06 a les 12 UTC al 07 a les 18 UTC
Vent 5 kt del Oest
Visibilitat 10 km o més
Escasses núvols a una alçada de 3000 ft
Evolucionant progressivament
l' 07 a les 03 UTC al 07 a les 06 UTC
Vent 5 kt del Sud-Est
Evolucionant progressivament
l' 07 a les 09 UTC al 07 a les 12 UTC
Vent 11 kt del Oest

TAF: RJFM 061105Z 0612/0718 28005KT 9999 FEW030 BECMG 0703/0706 14005KT BECMG 0709/0712 27011KT

Observacions i pronòstics meteorològics de més de 4000 aeroports (METAR i TAF).

Les estacions disponibles són els punts grocs i vermells al mapa.

Posi el ratolí al punt desitjat per veure el nom de l'estació.

Feu clic per veure les observacions i els pronòstics meteorològics.

Per canviar el mapa: feu clic els botons verds amb una creu de color negre per apropar; al botó verd amb un guió per allunyar la imatge; o en les fletxes verdes per a mapes adjacents.


METAR-TAF: